Main page
METAR-TAF:

METAR-TAF

Airports :

RAF Benson

Benson, England

latitude: 51-37N, longitude: 001-05W, elevation: 63 m

Current weather observation

The report was made 1 hour and 7 minutes ago, at 06:50 UTC
Calm wind
Temperature -4°C
Humidity 93%
Pressure 1014 hPa
Visibility: 3800 m

METAR: EGUB 200650Z AUTO 00000KT 3800 // NCD M04/M05 Q1014

Time: 07:57 (07:57 UTC)


TAF: missing

Weather observations and forecasts of more than 4000 airports (METAR and TAF reports).

The available stations are represented by yellow and red dots on the map.

Hover mouse over dot to see the name of the station.

Then click to see weather observations and forecasts.

To change the map : click on the green buttons with a black cross to zoom in, on the green button with a dash to zoom out, or on the green arrows for adjacent maps.


METAR-TAF: